createdAt,value
2019-02-23T00:01:03.131Z,5.75
2019-02-23T00:03:32.622Z,5.78
2019-02-23T00:06:02.430Z,5.71
2019-02-23T00:08:32.197Z,5.71
2019-02-23T00:11:04.217Z,5.60
2019-02-23T00:13:35.333Z,5.65
2019-02-23T00:16:05.462Z,5.65
2019-02-23T00:18:35.023Z,5.62
2019-02-23T00:21:04.574Z,5.55
2019-02-23T00:23:34.951Z,5.56
2019-02-23T00:26:05.191Z,5.76
2019-02-23T00:28:36.581Z,5.54
2019-02-23T00:31:06.610Z,5.58
2019-02-23T00:33:36.006Z,5.46
2019-02-23T00:36:06.031Z,5.44
2019-02-23T00:38:35.321Z,5.35
2019-02-23T00:41:05.268Z,5.37
2019-02-23T00:43:35.066Z,5.56
2019-02-23T00:46:05.811Z,5.37
2019-02-23T00:48:36.403Z,5.39
2019-02-23T00:51:06.631Z,5.41
2019-02-23T00:53:36.709Z,5.34
2019-02-23T00:56:06.492Z,5.28
2019-02-23T00:58:36.255Z,5.33
2019-02-23T01:01:06.547Z,5.23
2019-02-23T01:03:36.428Z,5.25
2019-02-23T01:06:06.401Z,5.26
2019-02-23T01:08:35.615Z,5.23
2019-02-23T01:11:04.941Z,5.11
2019-02-23T01:13:34.838Z,5.16
2019-02-23T01:16:04.991Z,5.15
2019-02-23T01:18:35.226Z,5.17
2019-02-23T01:21:06.524Z,5.17
2019-02-23T01:23:36.948Z,5.05
2019-02-23T01:26:06.809Z,4.90
2019-02-23T01:28:36.874Z,4.93
2019-02-23T01:31:06.152Z,4.84
2019-02-23T01:33:35.787Z,4.78
2019-02-23T01:36:05.297Z,4.68
2019-02-23T01:38:36.439Z,4.75
2019-02-23T01:41:07.414Z,4.83
2019-02-23T01:43:37.412Z,4.74
2019-02-23T01:46:06.991Z,4.73
2019-02-23T01:48:38.821Z,4.71
2019-02-23T01:51:08.149Z,4.70
2019-02-23T01:53:40.280Z,4.75
2019-02-23T01:56:10.217Z,4.74
2019-02-23T01:58:39.889Z,4.26
2019-02-23T02:01:09.481Z,4.43
2019-02-23T02:03:39.305Z,4.65
2019-02-23T02:06:09.185Z,4.77
2019-02-23T02:08:42.069Z,4.78
2019-02-23T02:11:13.310Z,4.56
2019-02-23T02:13:43.030Z,4.41
2019-02-23T02:16:13.188Z,4.48
2019-02-23T02:18:43.483Z,4.36
2019-02-23T02:21:13.368Z,4.39
2019-02-23T02:23:45.205Z,4.51
2019-02-23T02:26:15.873Z,4.52
2019-02-23T02:28:46.115Z,4.51
2019-02-23T02:31:15.774Z,4.55
2019-02-23T02:34:08.672Z,4.15
2019-02-23T02:36:38.147Z,4.30
2019-02-23T02:39:13.361Z,4.26
2019-02-23T02:41:43.546Z,4.32
2019-02-23T02:44:12.746Z,4.22
2019-02-23T02:46:42.800Z,4.25
2019-02-23T02:49:12.334Z,4.10
2019-02-23T02:51:42.466Z,4.07
2019-02-23T02:54:13.442Z,4.14
2019-02-23T02:56:43.207Z,3.97
2019-02-23T02:59:13.423Z,3.90
2019-02-23T03:01:43.323Z,4.20
2019-02-23T03:04:13.224Z,4.09
2019-02-23T03:06:43.569Z,3.96
2019-02-23T03:09:15.400Z,3.84
2019-02-23T03:11:46.053Z,3.89
2019-02-23T03:14:15.989Z,3.63
2019-02-23T03:16:45.911Z,3.65
2019-02-23T03:19:16.146Z,3.68
2019-02-23T03:21:45.661Z,3.77
2019-02-23T03:24:15.255Z,3.82
2019-02-23T03:26:46.691Z,3.77
2019-02-23T03:29:16.335Z,3.68
2019-02-23T03:31:45.905Z,3.55
2019-02-23T03:34:15.940Z,3.36
2019-02-23T03:36:45.533Z,3.19
2019-02-23T03:39:14.999Z,3.01
2019-02-23T03:41:44.542Z,3.29
2019-02-23T03:44:16.056Z,3.38
2019-02-23T03:46:47.220Z,3.38
2019-02-23T03:49:17.124Z,3.29
2019-02-23T03:51:47.239Z,3.17
2019-02-23T03:54:17.471Z,3.19
2019-02-23T03:56:48.098Z,3.24
2019-02-23T03:59:19.012Z,3.18
2019-02-23T04:01:49.407Z,3.36
2019-02-23T04:04:19.732Z,3.39
2019-02-23T04:06:49.632Z,3.37
2019-02-23T04:09:18.853Z,3.57
2019-02-23T04:11:48.979Z,3.95
2019-02-23T04:14:19.123Z,4.19
2019-02-23T04:16:50.150Z,4.13
2019-02-23T04:19:20.447Z,4.29
2019-02-23T04:21:49.961Z,4.33
2019-02-23T04:24:19.122Z,4.16
2019-02-23T04:26:48.805Z,3.92
2019-02-23T04:29:18.704Z,4.01
2019-02-23T04:31:48.452Z,4.12
2019-02-23T04:34:20.210Z,4.04
2019-02-23T04:36:49.415Z,3.86
2019-02-23T04:39:19.124Z,4.24
2019-02-23T04:41:49.185Z,4.21
2019-02-23T04:44:19.312Z,4.10
2019-02-23T04:46:48.999Z,4.19
2019-02-23T04:49:18.387Z,4.17
2019-02-23T04:51:50.115Z,4.18
2019-02-23T04:54:20.188Z,4.62
2019-02-23T04:56:49.683Z,4.30
2019-02-23T04:59:18.819Z,4.16
2019-02-23T05:01:48.347Z,3.99
2019-02-23T05:04:17.695Z,4.01
2019-02-23T05:06:47.941Z,4.05
2019-02-23T05:09:20.312Z,4.03
2019-02-23T05:11:51.584Z,3.98
2019-02-23T05:14:22.282Z,4.07
2019-02-23T05:16:51.655Z,3.98
2019-02-23T05:19:21.999Z,3.93
2019-02-23T05:21:51.331Z,3.67
2019-02-23T05:24:22.963Z,3.59
2019-02-23T05:26:53.190Z,3.55
2019-02-23T05:29:22.878Z,3.75
2019-02-23T05:31:52.961Z,3.66
2019-02-23T05:34:23.577Z,3.74
2019-02-23T05:36:53.425Z,3.70
2019-02-23T05:39:25.711Z,3.66
2019-02-23T05:41:56.349Z,3.77
2019-02-23T05:44:27.397Z,3.79
2019-02-23T05:46:57.607Z,3.79
2019-02-23T05:49:28.001Z,3.71
2019-02-23T05:51:58.208Z,3.74
2019-02-23T05:54:29.210Z,3.72
2019-02-23T05:56:59.384Z,3.75
2019-02-23T05:59:29.239Z,3.73
2019-02-23T06:02:01.607Z,3.59
2019-02-23T06:04:34.801Z,3.62
2019-02-23T06:07:06.610Z,3.51
2019-02-23T06:09:36.309Z,3.57
2019-02-23T06:12:06.522Z,3.64
2019-02-23T06:14:36.411Z,3.56
2019-02-23T06:17:06.452Z,3.46
2019-02-23T06:19:37.927Z,3.81
2019-02-23T06:22:09.244Z,3.61
2019-02-23T06:24:39.359Z,3.56
2019-02-23T06:27:08.806Z,3.54
2019-02-23T06:29:38.269Z,3.47
2019-02-23T06:32:08.340Z,3.56
2019-02-23T06:34:37.611Z,3.41
2019-02-23T06:37:07.322Z,3.28
2019-02-23T06:39:39.029Z,3.11
2019-02-23T06:42:09.273Z,2.91
2019-02-23T06:44:38.779Z,2.78
2019-02-23T06:47:09.268Z,2.89
2019-02-23T06:49:39.639Z,2.77
2019-02-23T06:52:09.843Z,2.77
2019-02-23T06:54:39.528Z,2.90
2019-02-23T06:57:11.158Z,2.87
2019-02-23T06:59:41.654Z,2.88
2019-02-23T07:02:11.570Z,3.32
2019-02-23T07:04:41.590Z,3.27
2019-02-23T07:07:11.940Z,3.13
2019-02-23T07:09:41.325Z,3.16
2019-02-23T07:12:12.668Z,3.23
2019-02-23T07:14:43.774Z,3.36
2019-02-23T07:17:13.944Z,3.35
2019-02-23T07:19:43.315Z,3.37
2019-02-23T07:22:15.643Z,3.50
2019-02-23T07:24:44.202Z,3.59
2019-02-23T07:27:16.305Z,3.71
2019-02-23T07:29:46.517Z,3.84
2019-02-23T07:32:16.833Z,3.65
2019-02-23T07:34:46.973Z,3.74
2019-02-23T07:37:16.603Z,3.87
2019-02-23T07:39:45.930Z,3.95
2019-02-23T07:42:15.947Z,3.83
2019-02-23T07:44:47.048Z,3.92
2019-02-23T07:47:17.403Z,4.06
2019-02-23T07:49:46.770Z,4.27
2019-02-23T07:52:25.697Z,4.32
2019-02-23T07:54:47.702Z,4.46
2019-02-23T07:57:17.819Z,4.57
2019-02-23T07:59:49.781Z,4.41
2019-02-23T08:02:20.478Z,4.40
2019-02-23T08:04:50.772Z,4.70
2019-02-23T08:07:20.520Z,4.80
2019-02-23T08:09:50.508Z,5.08
2019-02-23T08:12:20.641Z,4.75
2019-02-23T08:14:50.718Z,5.07
2019-02-23T08:17:22.312Z,5.24
2019-02-23T08:19:52.552Z,5.32
2019-02-23T08:22:22.194Z,5.51
2019-02-23T08:24:52.374Z,5.40
2019-02-23T08:27:22.749Z,6.14
2019-02-23T08:29:52.106Z,5.82
2019-02-23T08:32:23.623Z,5.94
2019-02-23T08:34:53.302Z,6.33
2019-02-23T08:37:23.242Z,6.47
2019-02-23T08:39:53.515Z,7.38
2019-02-23T08:42:23.619Z,6.63
2019-02-23T08:44:52.766Z,6.89
2019-02-23T08:47:22.830Z,7.87
2019-02-23T08:49:54.234Z,8.47
2019-02-23T08:52:23.816Z,8.98
2019-02-23T08:54:53.549Z,8.99
2019-02-23T08:57:22.890Z,10.16
2019-02-23T08:59:52.530Z,9.27
2019-02-23T09:02:22.399Z,9.53
2019-02-23T09:04:52.251Z,10.44
2019-02-23T09:07:24.190Z,10.29
2019-02-23T09:09:54.371Z,10.64
2019-02-23T09:12:23.587Z,11.48
2019-02-23T09:14:53.744Z,12.95
2019-02-23T09:17:23.311Z,15.11
2019-02-23T09:19:53.116Z,16.13
2019-02-23T09:22:23.084Z,16.67
2019-02-23T09:24:53.324Z,14.46
2019-02-23T09:27:25.348Z,14.65
2019-02-23T09:29:55.507Z,14.43
2019-02-23T09:32:25.060Z,13.34
2019-02-23T09:34:55.381Z,13.37
2019-02-23T09:37:24.588Z,14.38
2019-02-23T09:39:54.314Z,17.44
2019-02-23T09:42:25.869Z,15.13
2019-02-23T09:44:56.405Z,15.91
2019-02-23T09:47:25.879Z,14.41
2019-02-23T09:49:55.179Z,16.52
2019-02-23T09:52:25.336Z,14.97
2019-02-23T09:54:54.992Z,13.16
2019-02-23T09:57:24.993Z,13.72
2019-02-23T09:59:56.418Z,15.20
2019-02-23T10:02:26.421Z,14.66
2019-02-23T10:04:55.805Z,16.26
2019-02-23T10:07:25.908Z,17.61
2019-02-23T10:09:55.203Z,17.61
2019-02-23T10:12:24.704Z,18.14
2019-02-23T10:14:53.992Z,19.78
2019-02-23T10:17:26.022Z,20.52
2019-02-23T10:19:56.198Z,19.89
2019-02-23T10:22:26.235Z,19.24
2019-02-23T10:24:56.013Z,16.00
2019-02-23T10:27:25.373Z,15.85
2019-02-23T10:29:54.529Z,15.40
2019-02-23T10:32:24.027Z,14.89
2019-02-23T10:34:55.955Z,16.53
2019-02-23T10:37:26.294Z,14.74
2019-02-23T10:39:55.806Z,16.77
2019-02-23T10:42:26.207Z,16.69
2019-02-23T10:44:55.455Z,16.69
2019-02-23T10:47:25.632Z,17.88
2019-02-23T10:49:55.609Z,19.09
2019-02-23T10:52:26.211Z,17.77
2019-02-23T10:54:56.656Z,17.48
2019-02-23T10:57:26.678Z,16.11
2019-02-23T10:59:56.054Z,15.55
2019-02-23T11:02:26.151Z,17.12
2019-02-23T11:04:55.823Z,14.81
2019-02-23T11:07:25.088Z,13.30
2019-02-23T11:09:55.979Z,15.62
2019-02-23T11:12:26.261Z,13.45
2019-02-23T11:14:56.124Z,13.48
2019-02-23T11:17:26.033Z,14.40
2019-02-23T11:19:55.452Z,13.76
2019-02-23T11:22:25.638Z,12.95
2019-02-23T11:24:55.039Z,14.94
2019-02-23T11:27:26.083Z,17.90
2019-02-23T11:29:56.464Z,18.41
2019-02-23T11:32:25.847Z,19.00
2019-02-23T11:34:55.149Z,15.69
2019-02-23T11:37:25.204Z,16.12
2019-02-23T11:39:54.824Z,17.08
2019-02-23T11:42:24.505Z,17.42
2019-02-23T11:44:55.923Z,18.07
2019-02-23T11:47:26.104Z,17.05
2019-02-23T11:49:55.509Z,22.22
2019-02-23T11:52:25.246Z,23.66
2019-02-23T11:54:54.926Z,21.28
2019-02-23T11:57:25.081Z,20.54
2019-02-23T11:59:54.516Z,23.18
2019-02-23T12:02:26.149Z,24.30
2019-02-23T12:04:58.192Z,25.04
2019-02-23T12:07:28.098Z,22.31
2019-02-23T12:09:58.180Z,20.21
2019-02-23T12:12:27.632Z,20.79
2019-02-23T12:14:57.687Z,19.60
2019-02-23T12:17:29.645Z,17.18
2019-02-23T12:20:00.378Z,16.78
2019-02-23T12:22:29.816Z,16.29
2019-02-23T12:25:00.339Z,17.34
2019-02-23T12:27:32.428Z,17.74
2019-02-23T12:30:02.059Z,16.10
2019-02-23T12:32:34.186Z,17.00
2019-02-23T12:35:03.728Z,16.40
2019-02-23T12:37:32.952Z,17.72
2019-02-23T12:40:03.418Z,17.21
2019-02-23T12:42:33.589Z,15.73
2019-02-23T12:45:03.778Z,15.67
2019-02-23T12:47:35.666Z,15.31
2019-02-23T12:50:08.702Z,18.42
2019-02-23T12:52:37.852Z,16.18
2019-02-23T12:55:09.711Z,14.17
2019-02-23T12:57:39.878Z,15.07
2019-02-23T13:00:17.626Z,17.04
2019-02-23T13:02:47.174Z,16.19
2019-02-23T13:05:17.359Z,17.97
2019-02-23T13:07:47.444Z,16.59
2019-02-23T13:10:17.126Z,18.26
2019-02-23T13:13:11.347Z,18.31
2019-02-23T13:15:43.334Z,18.95
2019-02-23T13:18:34.174Z,19.57
2019-02-23T13:21:23.302Z,18.47
2019-02-23T13:24:10.079Z,19.55
2019-02-23T13:26:45.354Z,19.73
2019-02-23T13:29:32.482Z,18.88
2019-02-23T13:32:26.592Z,16.74
2019-02-23T13:35:02.184Z,17.63
2019-02-23T13:37:45.854Z,16.23
2019-02-23T13:40:17.325Z,13.94
2019-02-23T13:42:58.370Z,14.68
2019-02-23T13:45:38.961Z,15.97
2019-02-23T13:48:15.721Z,14.39
2019-02-23T13:51:02.590Z,15.08
2019-02-23T13:53:54.451Z,15.13
2019-02-23T13:56:57.633Z,14.58
2019-02-23T13:59:39.407Z,14.11
2019-02-23T14:02:17.505Z,13.49
2019-02-23T14:05:05.995Z,13.27
2019-02-23T14:07:46.122Z,12.99
2019-02-23T14:10:27.732Z,12.79
2019-02-23T14:13:34.520Z,12.64
2019-02-23T14:16:24.816Z,12.69
2019-02-23T14:18:59.022Z,12.28
2019-02-23T14:21:58.730Z,12.53
2019-02-23T14:24:34.320Z,12.50
2019-02-23T14:27:23.202Z,12.52
2019-02-23T14:30:01.615Z,12.40
2019-02-23T14:32:43.154Z,12.09
2019-02-23T14:35:28.501Z,12.16
2019-02-23T14:38:27.764Z,11.99
2019-02-23T14:41:23.264Z,12.02
2019-02-23T14:43:58.101Z,12.16
2019-02-23T14:46:40.514Z,12.01
2019-02-23T14:49:16.454Z,12.09
2019-02-23T14:51:57.871Z,12.04
2019-02-23T14:54:42.314Z,11.86
2019-02-23T14:57:31.290Z,11.88
2019-02-23T15:00:27.565Z,11.91
2019-02-23T15:03:20.026Z,11.58
2019-02-23T15:05:55.711Z,11.69
2019-02-23T15:08:33.858Z,11.69
2019-02-23T15:11:25.153Z,11.79
2019-02-23T15:14:13.214Z,11.65
2019-02-23T15:17:07.270Z,11.53
2019-02-23T15:19:42.334Z,11.42
2019-02-23T15:22:14.904Z,11.37
2019-02-23T15:25:13.574Z,11.27
2019-02-23T15:27:48.676Z,11.10
2019-02-23T15:30:24.395Z,11.11
2019-02-23T15:33:12.110Z,11.02
2019-02-23T15:35:56.042Z,10.97
2019-02-23T15:38:48.277Z,10.84
2019-02-23T15:41:36.031Z,10.74
2019-02-23T15:44:21.721Z,10.77
2019-02-23T15:47:15.805Z,10.77
2019-02-23T15:49:44.927Z,10.53
2019-02-23T15:52:14.966Z,10.50
2019-02-23T15:54:44.418Z,10.36
2019-02-23T15:57:13.911Z,10.39
2019-02-23T15:59:44.601Z,10.26
2019-02-23T16:02:16.468Z,10.26
2019-02-23T16:04:46.636Z,10.20
2019-02-23T16:07:16.720Z,9.90
2019-02-23T16:09:46.434Z,9.92
2019-02-23T16:12:16.620Z,9.76
2019-02-23T16:14:45.851Z,9.80
2019-02-23T16:17:17.212Z,9.79
2019-02-23T16:19:47.295Z,9.70
2019-02-23T16:22:18.708Z,9.71
2019-02-23T16:24:48.072Z,9.56
2019-02-23T16:27:17.426Z,9.52
2019-02-23T16:29:46.551Z,9.49
2019-02-23T16:32:15.869Z,9.55
2019-02-23T16:34:47.100Z,9.34
2019-02-23T16:37:17.490Z,9.27
2019-02-23T16:39:46.640Z,9.26
2019-02-23T16:42:16.051Z,9.11
2019-02-23T16:44:45.136Z,8.97
2019-02-23T16:47:14.534Z,8.91
2019-02-23T16:49:44.616Z,8.80
2019-02-23T16:52:14.174Z,8.76
2019-02-23T16:54:45.280Z,8.78
2019-02-23T16:57:17.500Z,8.73
2019-02-23T16:59:47.167Z,8.64
2019-02-23T17:02:17.249Z,8.63
2019-02-23T17:04:53.538Z,8.40
2019-02-23T17:07:21.426Z,8.33
2019-02-23T17:09:51.392Z,8.22
2019-02-23T17:12:20.806Z,8.49
2019-02-23T17:14:49.933Z,8.45
2019-02-23T17:17:19.773Z,8.24
2019-02-23T17:19:49.684Z,8.24
2019-02-23T17:22:19.271Z,8.19
2019-02-23T17:24:51.321Z,8.17
2019-02-23T17:27:21.303Z,8.32
2019-02-23T17:29:50.786Z,7.92
2019-02-23T17:32:20.272Z,7.93
2019-02-23T17:34:50.304Z,8.05
2019-02-23T17:37:21.126Z,7.93
2019-02-23T17:39:50.815Z,7.98
2019-02-23T17:42:28.190Z,7.65
2019-02-23T17:44:52.736Z,7.82
2019-02-23T17:47:22.796Z,7.78
2019-02-23T17:49:52.409Z,7.42
2019-02-23T17:52:23.474Z,7.30
2019-02-23T17:54:54.518Z,7.77
2019-02-23T17:57:26.431Z,7.54
2019-02-23T17:59:55.855Z,7.48
2019-02-23T18:02:26.103Z,7.57
2019-02-23T18:04:55.687Z,7.50
2019-02-23T18:07:25.769Z,7.39
2019-02-23T18:09:55.248Z,7.32
2019-02-23T18:12:26.367Z,7.31
2019-02-23T18:14:57.483Z,7.39
2019-02-23T18:17:27.560Z,7.44
2019-02-23T18:19:57.469Z,7.44
2019-02-23T18:22:27.718Z,7.30
2019-02-23T18:24:57.375Z,7.22
2019-02-23T18:27:27.351Z,7.49
2019-02-23T18:29:58.403Z,7.33
2019-02-23T18:32:28.531Z,7.18
2019-02-23T18:34:57.965Z,7.38
2019-02-23T18:37:28.137Z,7.33
2019-02-23T18:39:57.482Z,7.34
2019-02-23T18:42:27.009Z,7.44
2019-02-23T18:44:57.166Z,7.37
2019-02-23T18:47:27.938Z,7.17
2019-02-23T18:49:58.651Z,7.21
2019-02-23T18:52:27.857Z,7.31
2019-02-23T18:54:57.168Z,6.93
2019-02-23T18:57:26.370Z,7.15
2019-02-23T18:59:55.778Z,7.10
2019-02-23T19:02:25.530Z,7.23
2019-02-23T19:04:54.681Z,7.01
2019-02-23T19:07:25.454Z,7.06
2019-02-23T19:09:55.608Z,7.09
2019-02-23T19:12:24.814Z,7.06
2019-02-23T19:14:54.327Z,6.97
2019-02-23T19:17:23.654Z,6.96
2019-02-23T19:19:54.992Z,6.88
2019-02-23T19:22:25.205Z,6.93
2019-02-23T19:24:55.508Z,6.91
2019-02-23T19:27:26.626Z,6.43
2019-02-23T19:30:00.534Z,6.62
2019-02-23T19:32:30.054Z,6.29
2019-02-23T19:34:59.287Z,6.53
2019-02-23T19:37:32.485Z,6.72
2019-02-23T19:40:02.645Z,6.63
2019-02-23T19:42:32.941Z,6.16
2019-02-23T19:45:02.411Z,6.45
2019-02-23T19:47:31.935Z,6.04
2019-02-23T19:50:02.059Z,5.93
2019-02-23T19:52:31.451Z,6.22
2019-02-23T19:55:01.429Z,6.31
2019-02-23T19:57:31.492Z,6.49
2019-02-23T20:00:00.934Z,6.48
2019-02-23T20:02:30.450Z,6.36
2019-02-23T20:05:00.473Z,6.16
2019-02-23T20:07:29.991Z,5.94
2019-02-23T20:09:59.135Z,6.03
2019-02-23T20:12:28.425Z,6.07
2019-02-23T20:14:59.645Z,6.05
2019-02-23T20:17:29.815Z,6.10
2019-02-23T20:19:59.960Z,6.19
2019-02-23T20:22:30.379Z,5.74
2019-02-23T20:25:00.574Z,5.95
2019-02-23T20:27:30.277Z,5.87
2019-02-23T20:30:02.031Z,5.64
2019-02-23T20:32:31.802Z,5.60
2019-02-23T20:35:01.745Z,5.21
2019-02-23T20:37:31.251Z,5.19
2019-02-23T20:40:00.512Z,5.00
2019-02-23T20:42:29.935Z,4.89
2019-02-23T20:45:00.273Z,5.02
2019-02-23T20:47:31.821Z,4.87
2019-02-23T20:50:02.602Z,5.66
2019-02-23T20:52:33.684Z,5.48
2019-02-23T20:55:03.674Z,5.42
2019-02-23T20:57:33.001Z,5.53
2019-02-23T21:00:02.646Z,5.61
2019-02-23T21:02:32.134Z,5.42
2019-02-23T21:05:04.171Z,5.47
2019-02-23T21:07:33.475Z,5.63
2019-02-23T21:10:02.971Z,5.55
2019-02-23T21:12:33.112Z,5.53
2019-02-23T21:15:02.526Z,5.26
2019-02-23T21:17:32.139Z,5.40
2019-02-23T21:20:01.519Z,5.44
2019-02-23T21:22:33.423Z,5.50
2019-02-23T21:25:03.339Z,5.08
2019-02-23T21:27:32.711Z,4.55
2019-02-23T21:30:01.993Z,4.43
2019-02-23T21:32:31.508Z,4.79
2019-02-23T21:35:01.349Z,5.05
2019-02-23T21:37:31.109Z,5.00
2019-02-23T21:40:03.268Z,5.01
2019-02-23T21:42:33.588Z,4.71
2019-02-23T21:45:02.865Z,4.73
2019-02-23T21:47:32.149Z,4.26
2019-02-23T21:50:01.309Z,4.46
2019-02-23T21:52:30.518Z,4.86
2019-02-23T21:55:00.204Z,4.50
2019-02-23T21:57:30.465Z,4.65
2019-02-23T22:00:01.264Z,4.74
2019-02-23T22:02:30.590Z,4.69
2019-02-23T22:04:59.801Z,4.62
2019-02-23T22:07:29.182Z,4.76
2019-02-23T22:09:58.364Z,4.58
2019-02-23T22:12:27.574Z,4.67
2019-02-23T22:14:57.384Z,4.76
2019-02-23T22:17:27.356Z,4.73
2019-02-23T22:19:57.424Z,4.39
2019-02-23T22:22:28.231Z,4.44
2019-02-23T22:24:57.994Z,4.37
2019-02-23T22:27:31.405Z,4.51
2019-02-23T22:30:00.059Z,4.18
2019-02-23T22:32:30.166Z,4.10
2019-02-23T22:35:00.637Z,4.36
2019-02-23T22:37:30.421Z,3.97
2019-02-23T22:39:59.890Z,4.29
2019-02-23T22:42:30.277Z,4.09
2019-02-23T22:44:59.525Z,3.78
2019-02-23T22:47:28.928Z,4.19
2019-02-23T22:49:59.005Z,4.12
2019-02-23T22:52:30.369Z,4.35
2019-02-23T22:57:41.015Z,4.31
2019-02-23T23:00:14.644Z,4.20
2019-02-23T23:02:44.817Z,4.23
2019-02-23T23:05:14.426Z,3.94
2019-02-23T23:07:44.665Z,4.09
2019-02-23T23:10:13.812Z,3.82
2019-02-23T23:12:45.003Z,4.00
2019-02-23T23:15:16.583Z,3.48
2019-02-23T23:17:46.750Z,3.20
2019-02-23T23:20:16.258Z,2.98
2019-02-23T23:22:46.246Z,3.47
2019-02-23T23:25:15.679Z,3.80
2019-02-23T23:27:49.220Z,3.38
2019-02-23T23:30:18.993Z,3.96
2019-02-23T23:32:49.675Z,4.05
2019-02-23T23:35:19.854Z,4.09
2019-02-23T23:37:49.636Z,3.75
2019-02-23T23:40:19.736Z,3.44
2019-02-23T23:42:57.808Z,3.53
2019-02-23T23:45:22.161Z,3.00
2019-02-23T23:47:52.553Z,3.51
2019-02-23T23:50:21.709Z,3.57
2019-02-23T23:52:50.995Z,3.63
2019-02-23T23:55:20.455Z,3.40
2019-02-23T23:57:57.842Z,3.28
